Time;durP1;ratioP1;P1;durP2;ratioP2;P2;SDS_P1;SDS_P2;PMS_P1;PMS_P2;Temp;Humidity;BMP_temperature;BMP_pressure;BME280_temperature;BME280_humidity;BME280_pressure;Samples;Min_cycle;Max_cycle;Signal;HPM_P1;HPM_P2
2022/03/16 00:02:07;;;;;;;22.93;14.93;;;;;;;;;;5009363;28;20032;-75
2022/03/16 00:04:33;;;;;;;20.52;13.65;;;;;;;;;;5018541;28;20274;-78
2022/03/16 00:06:58;;;;;;;20.55;14.75;;;;;;;;;;5015686;28;20037;-81
2022/03/16 00:09:23;;;;;;;22.13;13.55;;;;;;;;;;5020324;28;20032;-74
2022/03/16 00:11:49;;;;;;;23.38;15.07;;;;;;;;;;5022757;28;20095;-76
2022/03/16 00:14:14;;;;;;;20.45;14.18;;;;;;;;;;5021166;28;20049;-75
2022/03/16 00:16:39;;;;;;;24.40;14.50;;;;;;;;;;5013420;28;20493;-74
2022/03/16 00:19:04;;;;;;;21.52;14.45;;;;;;;;;;5012648;28;20036;-74
2022/03/16 00:21:30;;;;;;;21.88;14.82;;;;;;;;;;5013016;28;20041;-75
2022/03/16 00:23:55;;;;;;;20.55;14.35;;;;;;;;;;5021113;28;20116;-74
2022/03/16 00:26:20;;;;;;;20.98;14.52;;;;;;;;;;5022261;28;20363;-73
2022/03/16 00:28:45;;;;;;;20.83;14.90;;;;;;;;;;5014913;28;20082;-74
2022/03/16 00:31:11;;;;;;;22.77;14.98;;;;;;;;;;5014125;28;20014;-74
2022/03/16 00:33:36;;;;;;;21.73;15.20;;;;;;;;;;5014683;28;20064;-75
2022/03/16 00:36:01;;;;;;;21.23;14.07;;;;;;;;;;5014037;28;20360;-74
2022/03/16 00:38:27;;;;;;;22.42;14.40;;;;;;;;;;5013839;28;20006;-74
2022/03/16 00:40:52;;;;;;;22.90;14.43;;;;;;;;;;5014232;28;20049;-74
2022/03/16 00:43:17;;;;;;;22.02;14.85;;;;;;;;;;5012846;28;20083;-74
2022/03/16 00:45:42;;;;;;;20.52;14.18;;;;;;;;;;5013058;28;20029;-76
2022/03/16 00:48:08;;;;;;;22.55;14.80;;;;;;;;;;5012475;28;20456;-75
2022/03/16 00:50:34;;;;;;;22.10;14.27;;;;;;;;;;5013700;28;20459;-74
2022/03/16 00:53:00;;;;;;;23.05;14.07;;;;;;;;;;5012516;28;20538;-74
2022/03/16 00:55:25;;;;;;;19.38;14.40;;;;;;;;;;5013860;28;20098;-75
2022/03/16 00:57:50;;;;;;;22.02;14.70;;;;;;;;;;5013710;28;20490;-75
2022/03/16 01:00:15;;;;;;;20.77;13.33;;;;;;;;;;5012094;28;20116;-74
2022/03/16 01:02:41;;;;;;;25.15;15.30;;;;;;;;;;5013750;28;20377;-75
2022/03/16 01:05:06;;;;;;;21.08;14.30;;;;;;;;;;5013438;28;20467;-73
2022/03/16 01:07:31;;;;;;;23.02;15.32;;;;;;;;;;5014443;28;20025;-74
2022/03/16 01:09:56;;;;;;;23.13;14.82;;;;;;;;;;5013521;28;20025;-74
2022/03/16 01:12:22;;;;;;;23.65;15.30;;;;;;;;;;5012833;28;20058;-74
2022/03/16 01:14:47;;;;;;;22.27;16.00;;;;;;;;;;5011987;28;20409;-74
2022/03/16 01:17:13;;;;;;;23.92;15.52;;;;;;;;;;5013008;28;20024;-74
2022/03/16 01:19:38;;;;;;;20.73;14.63;;;;;;;;;;5012217;28;20032;-75
2022/03/16 01:22:04;;;;;;;22.38;14.65;;;;;;;;;;5013872;28;20117;-75
2022/03/16 01:24:29;;;;;;;24.42;15.00;;;;;;;;;;5012640;28;20072;-74
2022/03/16 01:26:54;;;;;;;23.77;15.45;;;;;;;;;;5012324;28;20026;-75
2022/03/16 01:29:19;;;;;;;23.17;15.30;;;;;;;;;;5013692;28;20076;-75
2022/03/16 01:31:45;;;;;;;22.42;14.68;;;;;;;;;;5013377;28;20256;-75
2022/03/16 01:34:10;;;;;;;27.55;15.95;;;;;;;;;;5013388;28;20513;-74
2022/03/16 01:36:37;;;;;;;21.35;14.68;;;;;;;;;;5012656;28;20391;-74
2022/03/16 01:39:03;;;;;;;27.90;15.63;;;;;;;;;;5011272;28;20058;-75
2022/03/16 01:41:28;;;;;;;22.58;15.30;;;;;;;;;;5012915;28;20045;-74
2022/03/16 01:43:54;;;;;;;23.60;14.95;;;;;;;;;;5011446;28;20033;-74
2022/03/16 01:46:20;;;;;;;22.80;15.70;;;;;;;;;;5012656;28;20049;-75
2022/03/16 01:48:45;;;;;;;25.45;15.95;;;;;;;;;;5012641;28;20061;-75
2022/03/16 01:51:10;;;;;;;27.75;15.73;;;;;;;;;;5011335;28;20056;-74
2022/03/16 01:53:36;;;;;;;22.75;15.73;;;;;;;;;;5011298;28;20033;-75
2022/03/16 01:56:01;;;;;;;26.67;16.35;;;;;;;;;;5011112;28;20077;-75
2022/03/16 01:58:26;;;;;;;25.45;16.05;;;;;;;;;;5012303;28;20029;-75
2022/03/16 02:00:51;;;;;;;27.30;17.05;;;;;;;;;;5011131;28;20025;-74
2022/03/16 02:03:17;;;;;;;25.83;15.63;;;;;;;;;;5013713;28;20042;-74
2022/03/16 02:05:42;;;;;;;24.00;16.73;;;;;;;;;;5012580;28;20274;-74
2022/03/16 02:08:10;;;;;;;25.55;16.48;;;;;;;;;;5012185;28;20119;-74
2022/03/16 02:10:36;;;;;;;21.65;15.68;;;;;;;;;;5010855;28;20128;-75
2022/03/16 02:13:02;;;;;;;23.40;16.25;;;;;;;;;;5010771;28;20550;-75
2022/03/16 02:15:27;;;;;;;28.60;15.70;;;;;;;;;;5012495;28;20030;-74
2022/03/16 02:17:55;;;;;;;22.75;15.45;;;;;;;;;;5013317;28;20100;-75
2022/03/16 02:20:20;;;;;;;23.17;15.93;;;;;;;;;;5015183;28;20040;-80
2022/03/16 02:22:49;;;;;;;25.77;15.88;;;;;;;;;;5015175;28;20034;-74
2022/03/16 02:25:15;;;;;;;25.38;16.02;;;;;;;;;;5011725;28;20026;-74
2022/03/16 02:27:40;;;;;;;22.95;14.88;;;;;;;;;;5011836;28;20022;-75
2022/03/16 02:30:06;;;;;;;21.85;14.98;;;;;;;;;;5010541;28;20032;-75
2022/03/16 02:32:31;;;;;;;27.17;16.40;;;;;;;;;;5010631;28;20062;-74
2022/03/16 02:34:56;;;;;;;24.05;15.23;;;;;;;;;;5011989;28;20573;-75
2022/03/16 02:37:21;;;;;;;21.07;14.97;;;;;;;;;;5011877;28;20424;-74
2022/03/16 02:39:47;;;;;;;25.05;15.27;;;;;;;;;;5011691;28;20924;-75
2022/03/16 02:42:12;;;;;;;24.40;14.80;;;;;;;;;;5011733;28;20026;-74
2022/03/16 02:44:38;;;;;;;21.92;15.60;;;;;;;;;;5011717;28;20391;-74
2022/03/16 02:47:03;;;;;;;28.65;15.82;;;;;;;;;;4993947;28;20018;-74
2022/03/16 02:49:31;;;;;;;21.30;13.57;;;;;;;;;;5011546;28;20034;-75
2022/03/16 02:51:56;;;;;;;24.38;15.52;;;;;;;;;;5011636;28;20114;-74
2022/03/16 02:54:21;;;;;;;22.75;15.80;;;;;;;;;;5011335;28;20044;-75
2022/03/16 02:56:47;;;;;;;23.15;15.65;;;;;;;;;;5012318;28;20036;-74
2022/03/16 02:59:13;;;;;;;24.67;14.93;;;;;;;;;;5011312;28;20104;-74
2022/03/16 03:01:38;;;;;;;24.95;15.48;;;;;;;;;;5011258;28;20025;-78
2022/03/16 03:04:04;;;;;;;24.55;15.10;;;;;;;;;;5011504;28;20054;-74
2022/03/16 03:06:30;;;;;;;25.20;16.20;;;;;;;;;;5011387;28;20438;-74
2022/03/16 03:08:56;;;;;;;25.60;16.30;;;;;;;;;;5011479;28;20010;-75
2022/03/16 03:11:21;;;;;;;25.45;15.70;;;;;;;;;;5011576;28;20068;-74
2022/03/16 03:13:46;;;;;;;25.65;16.95;;;;;;;;;;5011673;28;20092;-74
2022/03/16 03:16:11;;;;;;;24.20;16.25;;;;;;;;;;5009987;28;20029;-74
2022/03/16 03:18:37;;;;;;;27.40;16.65;;;;;;;;;;5011228;28;20778;-75
2022/03/16 03:21:03;;;;;;;26.48;17.75;;;;;;;;;;5010827;28;20497;-74
2022/03/16 03:23:28;;;;;;;29.55;18.15;;;;;;;;;;5009389;28;20062;-74
2022/03/16 03:25:53;;;;;;;31.98;17.63;;;;;;;;;;5010091;28;20049;-74
2022/03/16 03:28:19;;;;;;;24.40;16.50;;;;;;;;;;5009521;28;20033;-75
2022/03/16 03:30:44;;;;;;;29.67;18.52;;;;;;;;;;5010119;28;20014;-75
2022/03/16 03:33:09;;;;;;;32.10;17.83;;;;;;;;;;5014151;28;20979;-74
2022/03/16 03:35:34;;;;;;;26.50;18.02;;;;;;;;;;5010946;28;20014;-73
2022/03/16 03:38:00;;;;;;;27.92;17.27;;;;;;;;;;5009124;28;20028;-73
2022/03/16 03:40:25;;;;;;;24.65;16.83;;;;;;;;;;5008972;28;20216;-74
2022/03/16 03:42:51;;;;;;;27.75;17.17;;;;;;;;;;5010209;28;20057;-73
2022/03/16 03:45:16;;;;;;;27.63;17.13;;;;;;;;;;5009571;28;20037;-73
2022/03/16 03:47:42;;;;;;;23.90;16.15;;;;;;;;;;5009593;28;20037;-74
2022/03/16 03:50:07;;;;;;;29.83;17.90;;;;;;;;;;5010595;28;20022;-74
2022/03/16 03:52:32;;;;;;;24.50;16.45;;;;;;;;;;5012233;28;20038;-74
2022/03/16 03:54:57;;;;;;;25.85;16.33;;;;;;;;;;5009245;28;21180;-73
2022/03/16 03:57:23;;;;;;;26.92;16.55;;;;;;;;;;5010645;28;20018;-73
2022/03/16 03:59:48;;;;;;;33.38;18.25;;;;;;;;;;5010684;28;20022;-73
2022/03/16 04:02:14;;;;;;;28.98;17.42;;;;;;;;;;5010391;28;20468;-74
2022/03/16 04:04:39;;;;;;;27.08;16.50;;;;;;;;;;5010937;28;20029;-71
2022/03/16 04:07:04;;;;;;;30.67;17.17;;;;;;;;;;5009641;28;20459;-74
2022/03/16 04:09:30;;;;;;;26.67;17.75;;;;;;;;;;5005651;28;20031;-71
2022/03/16 04:11:55;;;;;;;30.42;18.38;;;;;;;;;;5010193;28;20112;-71
2022/03/16 04:14:20;;;;;;;31.70;18.42;;;;;;;;;;5003479;28;20088;-70
2022/03/16 04:16:45;;;;;;;36.97;19.23;;;;;;;;;;5005632;28;20034;-72
2022/03/16 04:19:11;;;;;;;30.40;19.65;;;;;;;;;;4990780;28;20029;-72
2022/03/16 04:21:36;;;;;;;30.35;18.65;;;;;;;;;;4990999;28;20109;-71
2022/03/16 04:24:02;;;;;;;28.98;19.30;;;;;;;;;;4990266;28;20395;-72
2022/03/16 04:26:27;;;;;;;30.70;19.70;;;;;;;;;;4997353;28;20125;-72
2022/03/16 04:28:52;;;;;;;34.13;20.27;;;;;;;;;;5010579;28;20014;-72
2022/03/16 04:31:18;;;;;;;32.60;20.63;;;;;;;;;;5013157;28;20038;-74
2022/03/16 04:33:43;;;;;;;30.83;19.90;;;;;;;;;;5013451;28;20590;-74
2022/03/16 04:36:08;;;;;;;33.55;20.98;;;;;;;;;;5010713;28;20072;-72
2022/03/16 04:38:33;;;;;;;29.98;18.33;;;;;;;;;;5010205;28;20025;-72
2022/03/16 04:41:00;;;;;;;31.02;20.25;;;;;;;;;;5010094;28;20036;-70
2022/03/16 04:43:25;;;;;;;33.40;20.00;;;;;;;;;;5009590;28;20705;-71
2022/03/16 04:45:51;;;;;;;35.53;19.67;;;;;;;;;;5010102;28;20013;-72
2022/03/16 04:48:16;;;;;;;34.47;19.70;;;;;;;;;;5012212;28;20057;-71
2022/03/16 04:50:42;;;;;;;30.17;19.60;;;;;;;;;;5013467;28;20017;-72
2022/03/16 04:53:07;;;;;;;29.98;19.83;;;;;;;;;;5013661;28;20025;-72
2022/03/16 04:55:35;;;;;;;30.67;19.23;;;;;;;;;;5013391;28;20025;-71
2022/03/16 04:58:02;;;;;;;31.30;20.00;;;;;;;;;;5013423;28;20026;-73
2022/03/16 05:00:27;;;;;;;34.70;19.73;;;;;;;;;;5013259;28;20021;-71
2022/03/16 05:02:52;;;;;;;32.53;19.92;;;;;;;;;;5017970;28;20120;-71
2022/03/16 05:05:17;;;;;;;32.42;22.20;;;;;;;;;;5035242;28;20489;-73
2022/03/16 05:07:43;;;;;;;43.25;23.48;;;;;;;;;;5037279;28;20095;-72
2022/03/16 05:10:09;;;;;;;39.85;24.52;;;;;;;;;;5035934;28;20022;-71
2022/03/16 05:12:41;;;;;;;63.75;40.78;;;;;;;;;;5033896;28;20030;-74
2022/03/16 05:15:07;;;;;;;50.85;32.20;;;;;;;;;;5032706;28;20033;-74
2022/03/16 05:17:32;;;;;;;34.35;22.42;;;;;;;;;;5032940;28;20017;-73
2022/03/16 05:19:57;;;;;;;51.40;31.27;;;;;;;;;;5032614;28;20031;-73
2022/03/16 05:22:23;;;;;;;36.55;23.42;;;;;;;;;;5032804;28;20680;-71
2022/03/16 05:24:48;;;;;;;39.17;22.97;;;;;;;;;;5032943;28;20022;-72
2022/03/16 05:27:13;;;;;;;37.17;23.67;;;;;;;;;;5032545;28;20258;-72
2022/03/16 05:29:39;;;;;;;36.28;24.10;;;;;;;;;;5032564;28;20029;-72
2022/03/16 05:32:04;;;;;;;36.42;23.75;;;;;;;;;;5032360;28;20033;-72
2022/03/16 05:34:29;;;;;;;43.72;24.63;;;;;;;;;;5031588;28;20042;-73
2022/03/16 05:36:54;;;;;;;37.47;24.27;;;;;;;;;;5032554;28;20017;-73
2022/03/16 05:39:23;;;;;;;38.63;24.02;;;;;;;;;;5031165;28;20037;-73
2022/03/16 05:41:48;;;;;;;38.97;24.83;;;;;;;;;;5034673;28;20052;-72
2022/03/16 05:44:13;;;;;;;41.50;26.40;;;;;;;;;;5021609;28;20061;-72
2022/03/16 05:46:39;;;;;;;37.90;25.65;;;;;;;;;;5012297;28;20468;-72
2022/03/16 05:49:04;;;;;;;35.85;24.77;;;;;;;;;;5012480;28;20060;-73
2022/03/16 05:51:29;;;;;;;42.50;27.05;;;;;;;;;;5012393;28;20056;-73
2022/03/16 05:53:54;;;;;;;42.53;27.15;;;;;;;;;;5012275;28;20033;-73
2022/03/16 05:56:19;;;;;;;46.53;28.73;;;;;;;;;;5013035;28;20076;-73
2022/03/16 05:58:45;;;;;;;44.05;27.95;;;;;;;;;;5012380;28;20045;-71
2022/03/16 06:01:11;;;;;;;51.60;29.53;;;;;;;;;;5011666;28;20471;-72
2022/03/16 06:03:36;;;;;;;51.03;29.33;;;;;;;;;;5024053;28;20373;-73
2022/03/16 06:06:03;;;;;;;54.70;31.00;;;;;;;;;;5031966;28;20117;-73
2022/03/16 06:08:28;;;;;;;50.00;31.17;;;;;;;;;;5032279;28;20613;-73
2022/03/16 06:10:54;;;;;;;50.72;31.60;;;;;;;;;;5030861;28;20100;-75
2022/03/16 06:13:19;;;;;;;53.97;33.47;;;;;;;;;;5032055;28;20056;-75
2022/03/16 06:15:44;;;;;;;59.42;32.72;;;;;;;;;;5031820;28;20014;-75
2022/03/16 06:18:10;;;;;;;54.60;32.75;;;;;;;;;;5031750;28;20044;-75
2022/03/16 06:20:36;;;;;;;55.28;34.58;;;;;;;;;;5032372;28;20049;-76
2022/03/16 06:23:01;;;;;;;61.63;33.72;;;;;;;;;;5031864;28;20021;-76
2022/03/16 06:25:27;;;;;;;54.28;32.00;;;;;;;;;;5031699;28;20028;-74
2022/03/16 06:27:56;;;;;;;52.53;31.35;;;;;;;;;;5031639;28;20075;-75
2022/03/16 06:30:21;;;;;;;58.15;31.92;;;;;;;;;;5030303;28;20033;-75
2022/03/16 06:32:47;;;;;;;56.97;32.92;;;;;;;;;;5015176;28;20021;-75
2022/03/16 06:35:13;;;;;;;52.42;30.85;;;;;;;;;;5013189;28;20013;-76
2022/03/16 06:37:39;;;;;;;49.38;30.48;;;;;;;;;;5013543;28;21358;-75
2022/03/16 06:40:04;;;;;;;55.20;29.75;;;;;;;;;;5010963;28;20436;-74
2022/03/16 06:42:30;;;;;;;46.80;28.25;;;;;;;;;;5010662;28;20076;-73
2022/03/16 06:44:55;;;;;;;51.67;30.67;;;;;;;;;;5014694;28;20381;-76
2022/03/16 06:47:20;;;;;;;54.95;29.08;;;;;;;;;;5012489;28;20022;-74
2022/03/16 06:49:45;;;;;;;47.47;28.63;;;;;;;;;;5011178;28;20032;-74
2022/03/16 06:52:11;;;;;;;44.38;27.92;;;;;;;;;;5011070;28;20262;-73
2022/03/16 06:54:36;;;;;;;45.22;28.42;;;;;;;;;;5010069;28;20025;-74
2022/03/16 06:57:01;;;;;;;46.53;27.63;;;;;;;;;;5011412;28;20049;-73
2022/03/16 06:59:27;;;;;;;50.10;29.40;;;;;;;;;;5010970;28;20048;-73
2022/03/16 07:01:52;;;;;;;58.20;29.30;;;;;;;;;;5009950;28;20021;-73
2022/03/16 07:04:18;;;;;;;43.60;27.60;;;;;;;;;;4990436;28;20038;-74
2022/03/16 07:06:43;;;;;;;50.87;28.17;;;;;;;;;;4990481;28;20468;-73
2022/03/16 07:09:08;;;;;;;55.65;28.15;;;;;;;;;;4991795;28;20742;-74
2022/03/16 07:11:33;;;;;;;44.40;27.63;;;;;;;;;;4990263;28;20183;-74
2022/03/16 07:16:42;;;;;;;42.10;25.52;;;;;;;;;;4995516;28;20271;-74
2022/03/16 07:19:08;;;;;;;46.58;27.13;;;;;;;;;;4991152;28;20034;-74
2022/03/16 07:21:33;;;;;;;43.97;26.42;;;;;;;;;;5014445;28;20026;-73
2022/03/16 07:23:58;;;;;;;47.13;27.33;;;;;;;;;;5005941;28;20018;-73
2022/03/16 07:26:23;;;;;;;42.17;25.23;;;;;;;;;;5006127;28;20455;-74
2022/03/16 07:28:50;;;;;;;41.90;27.25;;;;;;;;;;4989784;28;20029;-73
2022/03/16 07:31:15;;;;;;;42.22;26.67;;;;;;;;;;4992496;28;20006;-79
2022/03/16 07:33:40;;;;;;;42.60;25.50;;;;;;;;;;4992170;28;20084;-73
2022/03/16 07:36:06;;;;;;;42.72;26.17;;;;;;;;;;4992340;28;20007;-73
2022/03/16 07:38:31;;;;;;;39.72;25.52;;;;;;;;;;4990899;28;20450;-74
2022/03/16 07:40:56;;;;;;;43.58;25.63;;;;;;;;;;4991438;28;20065;-74
2022/03/16 07:43:21;;;;;;;45.00;25.05;;;;;;;;;;4990798;28;20127;-75
2022/03/16 07:45:47;;;;;;;41.40;24.83;;;;;;;;;;4991264;28;20361;-74
2022/03/16 07:48:13;;;;;;;41.40;24.65;;;;;;;;;;4991077;28;20018;-73
2022/03/16 07:50:39;;;;;;;38.42;22.83;;;;;;;;;;4991039;28;20037;-74
2022/03/16 07:53:04;;;;;;;43.10;22.75;;;;;;;;;;4991177;28;20034;-73
2022/03/16 07:55:29;;;;;;;35.42;23.25;;;;;;;;;;4990948;28;20006;-74
2022/03/16 07:57:55;;;;;;;39.10;22.67;;;;;;;;;;4990874;28;20042;-73
2022/03/16 08:00:21;;;;;;;38.42;23.48;;;;;;;;;;4991035;28;20013;-73
2022/03/16 08:02:46;;;;;;;37.35;22.70;;;;;;;;;;4992794;28;20510;-73
2022/03/16 08:05:12;;;;;;;39.22;22.42;;;;;;;;;;5007009;28;20109;-73
2022/03/16 08:07:37;;;;;;;42.42;23.85;;;;;;;;;;4990845;28;20018;-74
2022/03/16 08:10:03;;;;;;;38.53;22.27;;;;;;;;;;4990731;28;20026;-74
2022/03/16 08:12:29;;;;;;;33.20;21.42;;;;;;;;;;4989168;28;20056;-78
2022/03/16 08:14:55;;;;;;;32.58;21.65;;;;;;;;;;5002641;28;20049;-73
2022/03/16 08:17:20;;;;;;;37.08;21.38;;;;;;;;;;5020302;28;20068;-73
2022/03/16 08:19:46;;;;;;;32.75;21.63;;;;;;;;;;5018718;28;20386;-73
2022/03/16 08:22:11;;;;;;;33.63;21.45;;;;;;;;;;5018146;28;20021;-74
2022/03/16 08:24:36;;;;;;;36.58;22.52;;;;;;;;;;5020969;28;20076;-74
2022/03/16 08:27:02;;;;;;;34.40;21.55;;;;;;;;;;5022228;28;20020;-76
2022/03/16 08:29:27;;;;;;;35.45;22.20;;;;;;;;;;5020024;28;20430;-74
2022/03/16 08:31:54;;;;;;;39.17;21.90;;;;;;;;;;5024174;28;20722;-74
2022/03/16 08:34:19;;;;;;;35.90;22.88;;;;;;;;;;5020591;28;20044;-73
2022/03/16 08:36:45;;;;;;;39.03;23.10;;;;;;;;;;5023695;28;20471;-73
2022/03/16 08:39:10;;;;;;;36.45;21.45;;;;;;;;;;5012902;28;20021;-73
2022/03/16 08:41:35;;;;;;;38.53;22.92;;;;;;;;;;5012652;28;20014;-73
2022/03/16 08:44:02;;;;;;;43.10;23.83;;;;;;;;;;5021025;28;20116;-73
2022/03/16 08:46:28;;;;;;;38.22;23.58;;;;;;;;;;5012737;28;20017;-73
2022/03/16 08:48:53;;;;;;;40.45;24.35;;;;;;;;;;5012919;28;20061;-74
2022/03/16 08:51:19;;;;;;;39.10;24.20;;;;;;;;;;5022035;28;20151;-73
2022/03/16 08:53:44;;;;;;;37.22;22.92;;;;;;;;;;5018116;28;20073;-74
2022/03/16 08:56:11;;;;;;;41.47;22.88;;;;;;;;;;5018852;28;20018;-75
2022/03/16 08:58:37;;;;;;;44.08;24.02;;;;;;;;;;5021673;28;20386;-73
2022/03/16 09:01:02;;;;;;;45.13;24.10;;;;;;;;;;5021463;28;20022;-74
2022/03/16 09:03:27;;;;;;;36.85;23.65;;;;;;;;;;5012656;28;20026;-74
2022/03/16 09:05:53;;;;;;;36.95;22.90;;;;;;;;;;5023363;28;20558;-73
2022/03/16 09:08:18;;;;;;;41.47;23.17;;;;;;;;;;5019733;28;20021;-73
2022/03/16 09:10:44;;;;;;;34.20;22.02;;;;;;;;;;5021444;28;20349;-73
2022/03/16 09:13:10;;;;;;;34.72;22.58;;;;;;;;;;5016411;28;20380;-73
2022/03/16 09:15:35;;;;;;;33.38;22.52;;;;;;;;;;5010797;28;20037;-74
2022/03/16 09:18:01;;;;;;;29.58;20.95;;;;;;;;;;5015287;28;20404;-74
2022/03/16 09:20:26;;;;;;;36.00;23.92;;;;;;;;;;5021956;28;20033;-74
2022/03/16 09:22:51;;;;;;;35.10;22.42;;;;;;;;;;5031359;28;20030;-75
2022/03/16 09:25:16;;;;;;;31.88;21.83;;;;;;;;;;5019025;28;20018;-74
2022/03/16 09:27:42;;;;;;;33.67;21.60;;;;;;;;;;5014417;28;20117;-74
2022/03/16 09:30:07;;;;;;;29.02;21.38;;;;;;;;;;5021299;28;20729;-74
2022/03/16 09:32:33;;;;;;;32.15;21.63;;;;;;;;;;5011926;28;20092;-74
2022/03/16 09:34:59;;;;;;;31.85;21.48;;;;;;;;;;5011479;28;20014;-74
2022/03/16 09:37:24;;;;;;;35.47;22.55;;;;;;;;;;5010929;28;20057;-74
2022/03/16 09:39:49;;;;;;;32.90;21.37;;;;;;;;;;5012547;28;20025;-74
2022/03/16 09:42:14;;;;;;;31.97;22.30;;;;;;;;;;5015362;28;20309;-74
2022/03/16 09:44:41;;;;;;;29.13;20.80;;;;;;;;;;5014928;28;21352;-74
2022/03/16 09:47:09;;;;;;;29.60;20.05;;;;;;;;;;5015074;28;20318;-75
2022/03/16 09:49:35;;;;;;;33.47;21.48;;;;;;;;;;5011846;28;20072;-75
2022/03/16 09:52:01;;;;;;;40.03;21.05;;;;;;;;;;5012930;28;20019;-74
2022/03/16 09:54:26;;;;;;;28.70;19.50;;;;;;;;;;5012549;28;20467;-75
2022/03/16 09:56:53;;;;;;;28.17;19.60;;;;;;;;;;5012830;28;20052;-74
2022/03/16 09:59:20;;;;;;;28.60;19.65;;;;;;;;;;5012734;28;20030;-74
2022/03/16 10:01:46;;;;;;;34.97;19.55;;;;;;;;;;5011566;28;20096;-75
2022/03/16 10:04:11;;;;;;;30.50;19.17;;;;;;;;;;5010992;28;20080;-75
2022/03/16 10:06:41;;;;;;;30.08;19.30;;;;;;;;;;5012139;28;20268;-74
2022/03/16 10:15:19;;;;;;;28.58;19.85;;;;;;;;;;5012450;28;20032;-74
2022/03/16 10:17:49;;;;;;;29.15;20.15;;;;;;;;;;5005266;28;20030;-74
2022/03/16 10:20:17;;;;;;;28.40;19.45;;;;;;;;;;5011096;28;20030;-74
2022/03/16 10:22:42;;;;;;;28.83;20.98;;;;;;;;;;5012430;28;20045;-74
2022/03/16 10:25:08;;;;;;;31.98;21.10;;;;;;;;;;5010867;28;20387;-74
2022/03/16 10:27:36;;;;;;;29.88;21.58;;;;;;;;;;5010787;28;20049;-75
2022/03/16 10:30:02;;;;;;;37.22;20.48;;;;;;;;;;5011964;28;20064;-74
2022/03/16 10:32:27;;;;;;;30.63;20.10;;;;;;;;;;5020886;28;20017;-75
2022/03/16 10:34:54;;;;;;;28.73;19.05;;;;;;;;;;5020726;28;20397;-74
2022/03/16 10:37:20;;;;;;;30.90;20.08;;;;;;;;;;5019195;28;20140;-73
2022/03/16 10:39:47;;;;;;;27.75;20.08;;;;;;;;;;5020988;28;20021;-74
2022/03/16 10:47:59;;;;;;;29.23;19.85;;;;;;;;;;5021856;28;20072;-74
2022/03/16 10:50:25;;;;;;;31.95;19.75;;;;;;;;;;5020713;28;20414;-75
2022/03/16 10:52:51;;;;;;;31.10;20.70;;;;;;;;;;5018186;28;20030;-75
2022/03/16 10:55:20;;;;;;;31.48;20.00;;;;;;;;;;5019661;28;20059;-74
2022/03/16 10:57:48;;;;;;;40.65;20.90;;;;;;;;;;5017673;28;20467;-74
2022/03/16 11:00:13;;;;;;;32.97;21.10;;;;;;;;;;5021902;28;20012;-75
2022/03/16 11:02:40;;;;;;;29.63;21.17;;;;;;;;;;5014946;28;20002;-75
2022/03/16 11:05:06;;;;;;;27.38;20.60;;;;;;;;;;5019742;28;20028;-74
2022/03/16 11:07:31;;;;;;;30.27;21.75;;;;;;;;;;5022005;28;20124;-75
2022/03/16 11:09:57;;;;;;;31.00;22.20;;;;;;;;;;5010348;28;20018;-73
2022/03/16 11:15:07;;;;;;;30.00;21.83;;;;;;;;;;5020439;28;20070;-71
2022/03/16 11:17:32;;;;;;;31.45;21.02;;;;;;;;;;5020489;28;20034;-74
2022/03/16 11:20:00;;;;;;;30.88;22.23;;;;;;;;;;5017240;28;20360;-71
2022/03/16 11:22:37;;;;;;;32.88;22.55;;;;;;;;;;5015976;28;20033;-71
2022/03/16 11:25:10;;;;;;;32.13;21.35;;;;;;;;;;5020072;28;20021;-72
2022/03/16 11:27:52;;;;;;;33.40;20.20;;;;;;;;;;5018240;28;20014;-71
2022/03/16 11:30:29;;;;;;;29.98;20.88;;;;;;;;;;5017368;28;20026;-72
2022/03/16 11:33:02;;;;;;;29.90;20.67;;;;;;;;;;5018261;28;20327;-70
2022/03/16 11:35:30;;;;;;;31.05;19.85;;;;;;;;;;5018906;28;20050;-71
2022/03/16 11:37:58;;;;;;;31.55;21.75;;;;;;;;;;5019611;28;20021;-71
2022/03/16 11:40:25;;;;;;;30.70;20.35;;;;;;;;;;5019624;28;20114;-71
2022/03/16 11:43:08;;;;;;;31.45;19.55;;;;;;;;;;5010020;28;20356;-72
2022/03/16 11:45:36;;;;;;;29.83;20.40;;;;;;;;;;5017548;28;20033;-71
2022/03/16 11:48:21;;;;;;;32.20;21.27;;;;;;;;;;5018822;28;20036;-70
2022/03/16 11:51:05;;;;;;;31.63;20.63;;;;;;;;;;5020734;28;20022;-71
2022/03/16 11:56:36;;;;;;;32.58;19.98;;;;;;;;;;5010479;28;20495;-71
2022/03/16 11:59:17;;;;;;;27.90;20.42;;;;;;;;;;5020722;28;20025;-71
2022/03/16 12:01:48;;;;;;;35.47;21.40;;;;;;;;;;5023641;28;20071;-71
2022/03/16 12:04:15;;;;;;;34.75;22.08;;;;;;;;;;5021141;28;20033;-71
2022/03/16 12:07:02;;;;;;;36.03;21.77;;;;;;;;;;5023309;28;20013;-71
2022/03/16 12:09:47;;;;;;;34.85;21.17;;;;;;;;;;5019630;28;20022;-72
2022/03/16 12:15:11;;;;;;;37.00;23.73;;;;;;;;;;5019679;28;20065;-71
2022/03/16 12:17:37;;;;;;;38.33;23.55;;;;;;;;;;5021618;28;20026;-71
2022/03/16 12:20:09;;;;;;;36.45;22.48;;;;;;;;;;5017506;28;20076;-71
2022/03/16 12:22:37;;;;;;;34.13;22.05;;;;;;;;;;5018336;28;20144;-71
2022/03/16 12:25:21;;;;;;;36.70;22.52;;;;;;;;;;5023297;28;20018;-71
2022/03/16 12:30:36;;;;;;;34.22;22.60;;;;;;;;;;5019919;28;20075;-74
2022/03/16 12:33:02;;;;;;;36.47;24.17;;;;;;;;;;5021561;28;20108;-74
2022/03/16 12:35:34;;;;;;;38.38;23.60;;;;;;;;;;5023246;28;20052;-74
2022/03/16 12:37:59;;;;;;;36.20;22.83;;;;;;;;;;5011716;28;20117;-72
2022/03/16 12:40:26;;;;;;;38.55;24.02;;;;;;;;;;5013107;28;20522;-73
2022/03/16 12:42:53;;;;;;;39.58;24.48;;;;;;;;;;5023692;28;20060;-73
2022/03/16 12:45:20;;;;;;;31.90;22.33;;;;;;;;;;5024837;28;20085;-73
2022/03/16 12:47:55;;;;;;;38.00;23.48;;;;;;;;;;5019526;28;20606;-73
2022/03/16 12:50:21;;;;;;;42.15;25.33;;;;;;;;;;5009448;28;20025;-75
2022/03/16 12:52:50;;;;;;;31.67;22.20;;;;;;;;;;5012513;28;20030;-74
2022/03/16 12:55:18;;;;;;;38.85;22.88;;;;;;;;;;5013576;28;20025;-74
2022/03/16 12:57:56;;;;;;;39.92;23.00;;;;;;;;;;5012281;28;20609;-73
2022/03/16 13:00:31;;;;;;;32.63;22.45;;;;;;;;;;5013311;28;20387;-74
2022/03/16 13:03:10;;;;;;;42.03;21.92;;;;;;;;;;5021288;28;20029;-73
2022/03/16 13:05:36;;;;;;;34.65;22.25;;;;;;;;;;5017764;28;20730;-73
2022/03/16 13:08:01;;;;;;;35.72;22.95;;;;;;;;;;5020852;28;20136;-72
2022/03/16 13:10:28;;;;;;;34.47;23.10;;;;;;;;;;5023749;28;20029;-73
2022/03/16 13:13:07;;;;;;;40.45;23.20;;;;;;;;;;5012606;28;20050;-73
2022/03/16 13:15:32;;;;;;;34.25;21.95;;;;;;;;;;5024010;28;20034;-74
2022/03/16 13:17:58;;;;;;;31.42;22.10;;;;;;;;;;5016810;28;20022;-73
2022/03/16 13:20:26;;;;;;;30.83;22.00;;;;;;;;;;5022743;28;20577;-73
2022/03/16 13:23:02;;;;;;;35.20;22.63;;;;;;;;;;5017934;28;20037;-73
2022/03/16 13:25:27;;;;;;;33.25;21.45;;;;;;;;;;5018036;28;20533;-73
2022/03/16 13:27:55;;;;;;;32.80;21.70;;;;;;;;;;5021471;28;20022;-73
2022/03/16 13:30:23;;;;;;;31.02;20.75;;;;;;;;;;5019657;28;20275;-72
2022/03/16 13:32:51;;;;;;;35.72;22.40;;;;;;;;;;5020343;28;20386;-72
2022/03/16 13:35:21;;;;;;;28.30;20.58;;;;;;;;;;5017577;28;20460;-72
2022/03/16 13:37:48;;;;;;;35.50;21.05;;;;;;;;;;5011482;28;20018;-73
2022/03/16 13:40:13;;;;;;;30.98;20.92;;;;;;;;;;5019500;28;20056;-73
2022/03/16 13:42:40;;;;;;;30.52;20.50;;;;;;;;;;5011610;28;20467;-74
2022/03/16 13:45:15;;;;;;;30.65;21.40;;;;;;;;;;5018825;28;20049;-73
2022/03/16 13:47:42;;;;;;;35.78;22.85;;;;;;;;;;5013612;28;20022;-73
2022/03/16 13:50:16;;;;;;;31.10;20.88;;;;;;;;;;5019058;28;20039;-74
2022/03/16 13:52:42;;;;;;;38.72;21.52;;;;;;;;;;5013114;28;20030;-75
2022/03/16 13:55:08;;;;;;;29.70;18.70;;;;;;;;;;5016323;28;20033;-74
2022/03/16 13:57:36;;;;;;;33.20;19.13;;;;;;;;;;5017306;28;20327;-73
2022/03/16 14:00:06;;;;;;;36.03;20.50;;;;;;;;;;5020591;28;20021;-71
2022/03/16 14:02:31;;;;;;;31.88;18.30;;;;;;;;;;5021492;28;20497;-74
2022/03/16 14:04:58;;;;;;;33.15;17.95;;;;;;;;;;5014707;28;20022;-74
2022/03/16 14:07:29;;;;;;;30.90;20.08;;;;;;;;;;5016085;28;20024;-72
2022/03/16 14:10:01;;;;;;;28.38;19.05;;;;;;;;;;5012061;28;20025;-73
2022/03/16 14:12:31;;;;;;;41.28;17.73;;;;;;;;;;5011930;28;20046;-73
2022/03/16 14:15:08;;;;;;;33.20;18.55;;;;;;;;;;5011789;28;20061;-73
2022/03/16 14:17:43;;;;;;;37.10;16.67;;;;;;;;;;5013732;28;20049;-74
2022/03/16 14:20:13;;;;;;;31.90;17.17;;;;;;;;;;5016586;28;20520;-73
2022/03/16 14:22:39;;;;;;;29.95;16.63;;;;;;;;;;5019576;28;20048;-73
2022/03/16 14:25:34;;;;;;;32.17;18.25;;;;;;;;;;5021290;28;20040;-75
2022/03/16 14:28:02;;;;;;;36.63;19.35;;;;;;;;;;5000963;28;20037;-74
2022/03/16 14:30:29;;;;;;;27.52;17.10;;;;;;;;;;5019170;28;20026;-74
2022/03/16 14:33:01;;;;;;;30.10;18.05;;;;;;;;;;5019329;28;20017;-71
2022/03/16 14:35:27;;;;;;;29.40;16.70;;;;;;;;;;5018948;28;20108;-72
2022/03/16 14:37:53;;;;;;;30.92;16.42;;;;;;;;;;5021119;28;20024;-72
2022/03/16 14:40:22;;;;;;;31.17;15.27;;;;;;;;;;5015774;28;20018;-72